createdAt,value
2023-10-09T00:01:05.940Z,2.73
2023-10-09T00:04:02.466Z,2.70
2023-10-09T00:07:00.756Z,3.40
2023-10-09T00:09:56.196Z,5.27
2023-10-09T00:12:50.204Z,4.60
2023-10-09T00:15:44.714Z,6.30
2023-10-09T00:18:39.153Z,3.57
2023-10-09T00:21:35.953Z,7.60
2023-10-09T00:24:29.850Z,5.67
2023-10-09T00:27:25.051Z,9.23
2023-10-09T00:30:22.447Z,6.43
2023-10-09T00:33:23.288Z,4.17
2023-10-09T00:36:20.677Z,4.73
2023-10-09T00:39:21.362Z,6.57
2023-10-09T00:42:15.766Z,9.83
2023-10-09T00:45:11.643Z,4.10
2023-10-09T00:48:07.694Z,6.13
2023-10-09T00:51:01.686Z,7.87
2023-10-09T00:53:59.407Z,6.30
2023-10-09T00:56:59.073Z,7.23
2023-10-09T01:00:02.464Z,7.30
2023-10-09T01:03:11.835Z,4.50
2023-10-09T01:06:17.464Z,5.73
2023-10-09T01:09:13.500Z,4.50
2023-10-09T01:12:08.828Z,5.13
2023-10-09T01:15:02.458Z,7.20
2023-10-09T01:17:55.559Z,5.53
2023-10-09T01:20:48.538Z,5.27
2023-10-09T01:24:00.018Z,4.87
2023-10-09T01:26:55.419Z,4.93
2023-10-09T01:29:48.654Z,4.47
2023-10-09T01:32:41.892Z,4.65
2023-10-09T01:35:35.867Z,5.13
2023-10-09T01:38:41.468Z,4.90
2023-10-09T01:41:36.399Z,3.90
2023-10-09T01:44:33.208Z,5.80
2023-10-09T01:47:29.927Z,6.10
2023-10-09T01:50:54.168Z,4.00
2023-10-09T01:53:48.840Z,5.47
2023-10-09T01:56:47.398Z,5.13
2023-10-09T01:59:44.907Z,5.90
2023-10-09T02:02:37.963Z,3.63
2023-10-09T02:05:35.294Z,4.00
2023-10-09T02:08:37.263Z,5.40
2023-10-09T02:11:42.624Z,5.63
2023-10-09T02:14:42.488Z,4.50
2023-10-09T02:17:35.427Z,5.07
2023-10-09T02:20:31.897Z,3.10
2023-10-09T02:23:31.392Z,5.63
2023-10-09T02:26:33.229Z,4.80
2023-10-09T02:29:27.756Z,4.87
2023-10-09T02:32:26.865Z,4.73
2023-10-09T02:35:29.325Z,5.10
2023-10-09T02:38:24.518Z,5.37
2023-10-09T02:41:23.810Z,7.67
2023-10-09T02:44:16.977Z,7.73
2023-10-09T02:47:19.134Z,4.37
2023-10-09T02:50:21.829Z,6.07
2023-10-09T02:53:19.734Z,8.20
2023-10-09T02:56:14.640Z,5.03
2023-10-09T02:59:09.851Z,8.83
2023-10-09T03:02:02.909Z,7.97
2023-10-09T03:04:56.701Z,7.53
2023-10-09T03:07:53.239Z,7.73
2023-10-09T03:10:46.280Z,6.43
2023-10-09T03:13:39.242Z,6.17
2023-10-09T03:16:34.744Z,6.13
2023-10-09T03:19:29.408Z,6.57
2023-10-09T03:22:22.611Z,9.87
2023-10-09T03:25:18.195Z,5.60
2023-10-09T03:28:11.549Z,11.47
2023-10-09T03:31:06.813Z,8.60
2023-10-09T03:33:59.868Z,6.30
2023-10-09T03:37:07.748Z,6.03
2023-10-09T03:40:00.914Z,5.90
2023-10-09T03:42:56.222Z,6.50
2023-10-09T03:45:53.690Z,6.47
2023-10-09T03:48:52.206Z,4.20
2023-10-09T03:51:46.669Z,6.17
2023-10-09T03:54:40.111Z,5.80
2023-10-09T03:57:33.341Z,6.43
2023-10-09T04:00:30.112Z,6.70
2023-10-09T04:03:23.328Z,4.10
2023-10-09T04:06:18.787Z,6.57
2023-10-09T04:09:30.470Z,4.50
2023-10-09T04:12:26.592Z,4.30
2023-10-09T04:15:24.167Z,5.07
2023-10-09T04:18:29.249Z,6.67
2023-10-09T04:21:35.514Z,5.13
2023-10-09T04:24:36.671Z,6.33
2023-10-09T04:27:38.636Z,5.63
2023-10-09T04:30:41.309Z,5.63
2023-10-09T04:33:44.230Z,8.57
2023-10-09T04:36:47.581Z,6.93
2023-10-09T04:39:47.995Z,5.10
2023-10-09T04:42:47.979Z,6.50
2023-10-09T04:45:57.890Z,6.37
2023-10-09T04:48:55.512Z,5.93
2023-10-09T04:52:03.869Z,7.60
2023-10-09T04:55:20.205Z,5.90
2023-10-09T04:58:24.816Z,7.70
2023-10-09T05:01:37.072Z,5.10
2023-10-09T05:04:42.961Z,5.23
2023-10-09T05:07:52.523Z,8.27
2023-10-09T05:11:06.448Z,6.50
2023-10-09T05:14:12.817Z,6.77
2023-10-09T05:17:07.950Z,6.53
2023-10-09T05:20:16.088Z,5.60
2023-10-09T05:23:27.109Z,4.23
2023-10-09T05:26:38.756Z,4.33
2023-10-09T05:29:48.962Z,3.87
2023-10-09T05:32:49.438Z,4.80
2023-10-09T05:36:00.689Z,6.23
2023-10-09T05:39:18.805Z,4.90
2023-10-09T05:42:15.122Z,8.17
2023-10-09T05:45:25.644Z,5.93
2023-10-09T05:48:38.804Z,11.50
2023-10-09T05:51:48.768Z,6.53
2023-10-09T05:55:04.327Z,6.90
2023-10-09T05:58:15.608Z,5.93
2023-10-09T06:01:22.677Z,5.57
2023-10-09T06:04:18.778Z,8.30
2023-10-09T06:07:15.317Z,6.57
2023-10-09T06:10:19.048Z,6.87
2023-10-09T06:13:47.004Z,4.57
2023-10-09T06:16:42.994Z,5.13
2023-10-09T06:19:44.425Z,6.07
2023-10-09T06:22:56.803Z,6.93
2023-10-09T06:25:53.545Z,5.83
2023-10-09T06:28:53.135Z,7.00
2023-10-09T06:32:00.559Z,8.03
2023-10-09T06:34:53.494Z,7.57
2023-10-09T06:38:08.451Z,7.13
2023-10-09T06:41:33.096Z,6.27
2023-10-09T06:44:47.789Z,7.73
2023-10-09T06:47:43.281Z,6.10
2023-10-09T06:50:50.817Z,7.13
2023-10-09T06:54:04.733Z,7.93
2023-10-09T06:57:14.793Z,6.83
2023-10-09T07:00:28.165Z,6.20
2023-10-09T07:03:30.734Z,6.00
2023-10-09T07:06:46.959Z,8.23
2023-10-09T07:09:44.079Z,6.80
2023-10-09T07:12:43.824Z,6.10
2023-10-09T07:15:54.577Z,6.97
2023-10-09T07:18:55.594Z,5.13
2023-10-09T07:21:55.249Z,4.80
2023-10-09T07:24:51.103Z,5.53
2023-10-09T07:27:45.777Z,5.87
2023-10-09T07:30:39.106Z,6.77
2023-10-09T07:33:53.293Z,7.63
2023-10-09T07:36:56.961Z,5.03
2023-10-09T07:39:58.313Z,5.43
2023-10-09T07:42:53.761Z,5.60
2023-10-09T07:46:04.454Z,4.53
2023-10-09T07:48:57.946Z,4.60
2023-10-09T07:51:51.157Z,5.80
2023-10-09T07:54:54.222Z,6.47
2023-10-09T07:57:53.321Z,5.70
2023-10-09T08:01:03.065Z,5.67
2023-10-09T08:04:08.769Z,6.77
2023-10-09T08:08:04.178Z,5.93
2023-10-09T08:10:40.424Z,6.90
2023-10-09T08:14:06.824Z,5.50
2023-10-09T08:17:12.754Z,5.90
2023-10-09T08:20:18.259Z,7.87
2023-10-09T08:23:23.298Z,6.47
2023-10-09T08:26:29.368Z,7.53
2023-10-09T08:29:35.599Z,6.83
2023-10-09T08:35:37.771Z,10.07
2023-10-09T08:38:34.293Z,8.63
2023-10-09T08:41:31.272Z,10.13
2023-10-09T08:44:27.902Z,11.17
2023-10-09T08:47:21.253Z,7.07
2023-10-09T08:50:16.035Z,6.83
2023-10-09T08:53:09.632Z,6.00
2023-10-09T08:56:04.709Z,10.23
2023-10-09T08:58:58.730Z,5.63
2023-10-09T09:01:54.188Z,7.20
2023-10-09T09:04:51.688Z,5.57
2023-10-09T09:07:44.804Z,11.27
2023-10-09T09:10:40.006Z,6.13
2023-10-09T09:13:35.306Z,6.10
2023-10-09T09:16:31.553Z,6.50
2023-10-09T09:19:33.397Z,5.13
2023-10-09T09:22:29.309Z,10.63
2023-10-09T09:25:25.607Z,9.40
2023-10-09T09:28:22.737Z,7.93
2023-10-09T09:31:16.101Z,7.77
2023-10-09T09:34:17.763Z,7.30
2023-10-09T09:37:14.996Z,5.60
2023-10-09T09:40:16.308Z,6.33
2023-10-09T09:43:18.636Z,7.30
2023-10-09T09:46:13.605Z,5.33
2023-10-09T09:49:13.503Z,8.90
2023-10-09T09:52:11.222Z,5.23
2023-10-09T09:55:06.198Z,6.80
2023-10-09T09:57:59.870Z,5.27
2023-10-09T10:00:56.165Z,5.40
2023-10-09T10:03:52.126Z,4.37
2023-10-09T10:06:46.278Z,4.90
2023-10-09T10:09:41.061Z,6.03
2023-10-09T10:12:49.131Z,7.57
2023-10-09T10:16:14.074Z,7.90
2023-10-09T10:19:23.472Z,9.50
2023-10-09T10:22:25.136Z,14.07
2023-10-09T10:25:36.820Z,6.00
2023-10-09T10:28:44.043Z,5.77
2023-10-09T10:32:08.234Z,5.80
2023-10-09T10:35:07.783Z,5.80
2023-10-09T10:38:12.665Z,8.00
2023-10-09T10:41:13.638Z,4.97
2023-10-09T10:44:20.585Z,7.80
2023-10-09T10:47:33.304Z,6.50
2023-10-09T10:50:37.319Z,6.50
2023-10-09T10:53:36.560Z,6.03
2023-10-09T10:56:38.617Z,6.53
2023-10-09T10:59:37.878Z,7.60
2023-10-09T11:02:32.421Z,8.00
2023-10-09T11:05:29.042Z,9.03
2023-10-09T11:08:28.524Z,6.53
2023-10-09T11:11:21.682Z,6.40
2023-10-09T11:14:16.900Z,6.70
2023-10-09T11:17:25.106Z,8.30
2023-10-09T11:20:33.182Z,8.93
2023-10-09T11:23:41.075Z,7.67
2023-10-09T11:26:41.373Z,7.20
2023-10-09T11:29:48.799Z,6.60
2023-10-09T11:32:42.345Z,6.40
2023-10-09T11:35:36.392Z,6.13
2023-10-09T11:38:37.683Z,9.43
2023-10-09T11:41:43.618Z,15.53
2023-10-09T11:47:36.671Z,6.30
2023-10-09T11:50:46.539Z,7.70
2023-10-09T11:53:44.608Z,7.20
2023-10-09T11:56:37.750Z,7.10
2023-10-09T11:59:35.547Z,7.20
2023-10-09T12:02:29.192Z,8.20
2023-10-09T12:05:22.512Z,15.97
2023-10-09T12:08:16.864Z,6.73
2023-10-09T12:11:14.331Z,6.00
2023-10-09T12:14:07.882Z,7.03
2023-10-09T12:17:06.477Z,6.37
2023-10-09T12:20:00.043Z,10.33
2023-10-09T12:22:53.465Z,7.03
2023-10-09T12:25:48.107Z,8.07
2023-10-09T12:28:47.589Z,9.53
2023-10-09T12:31:43.141Z,8.17
2023-10-09T12:34:39.386Z,8.23
2023-10-09T12:37:32.495Z,10.00
2023-10-09T12:40:32.475Z,10.00
2023-10-09T12:43:28.992Z,8.63
2023-10-09T12:46:26.651Z,11.03
2023-10-09T12:49:20.461Z,8.17
2023-10-09T12:52:16.605Z,10.13
2023-10-09T12:55:21.703Z,11.00
2023-10-09T12:58:19.352Z,15.67
2023-10-09T13:01:13.164Z,22.60
2023-10-09T13:04:12.930Z,15.00
2023-10-09T13:07:07.283Z,13.13
2023-10-09T13:10:13.840Z,8.57
2023-10-09T13:13:07.521Z,10.47
2023-10-09T13:16:01.745Z,9.67
2023-10-09T13:18:57.983Z,9.60
2023-10-09T13:21:58.379Z,11.30
2023-10-09T13:24:53.998Z,11.73
2023-10-09T13:27:54.244Z,10.47
2023-10-09T13:30:50.542Z,11.10
2023-10-09T13:33:44.012Z,13.27
2023-10-09T13:36:38.314Z,11.13
2023-10-09T13:39:40.102Z,11.17
2023-10-09T13:42:33.109Z,11.37
2023-10-09T13:45:28.257Z,11.10
2023-10-09T13:48:22.255Z,12.17
2023-10-09T13:51:18.642Z,13.93
2023-10-09T13:54:19.443Z,12.10
2023-10-09T13:57:13.976Z,13.60
2023-10-09T14:00:12.187Z,12.20
2023-10-09T14:03:13.253Z,13.93
2023-10-09T14:06:13.651Z,12.80
2023-10-09T14:09:10.200Z,16.33
2023-10-09T14:12:08.597Z,13.03
2023-10-09T14:15:05.273Z,13.70
2023-10-09T14:17:58.485Z,12.30
2023-10-09T14:20:57.196Z,23.37
2023-10-09T14:23:50.219Z,16.07
2023-10-09T14:26:43.752Z,15.63
2023-10-09T14:29:38.831Z,14.70
2023-10-09T14:32:51.646Z,12.60
2023-10-09T14:35:46.518Z,13.37
2023-10-09T14:38:40.133Z,20.60
2023-10-09T14:41:34.328Z,12.70
2023-10-09T14:44:29.339Z,15.03
2023-10-09T14:47:22.613Z,20.50
2023-10-09T14:50:17.206Z,14.57
2023-10-09T14:53:10.182Z,12.60
2023-10-09T14:56:04.806Z,12.83
2023-10-09T14:58:59.399Z,12.93
2023-10-09T15:01:55.156Z,11.83
2023-10-09T15:04:48.514Z,12.90
2023-10-09T15:07:45.283Z,12.80
2023-10-09T15:10:47.272Z,14.93
2023-10-09T15:13:40.821Z,12.47
2023-10-09T15:16:34.805Z,12.30
2023-10-09T15:19:33.104Z,12.83
2023-10-09T15:22:29.621Z,12.27
2023-10-09T15:25:24.218Z,12.33
2023-10-09T15:28:18.391Z,11.57
2023-10-09T15:31:12.353Z,12.33
2023-10-09T15:34:09.573Z,13.13
2023-10-09T15:37:04.985Z,13.47
2023-10-09T15:39:58.295Z,13.60
2023-10-09T15:42:57.766Z,12.23
2023-10-09T15:45:51.090Z,13.60
2023-10-09T15:48:45.934Z,11.03
2023-10-09T15:51:39.065Z,13.10
2023-10-09T15:54:32.068Z,12.90
2023-10-09T15:57:25.104Z,22.57
2023-10-09T16:00:19.747Z,14.17
2023-10-09T16:03:15.226Z,12.93
2023-10-09T16:06:10.475Z,13.43
2023-10-09T16:09:05.795Z,12.83
2023-10-09T16:11:59.368Z,12.83
2023-10-09T16:14:55.017Z,13.43
2023-10-09T16:17:50.643Z,12.40
2023-10-09T16:20:44.458Z,14.00
2023-10-09T16:23:38.745Z,13.53
2023-10-09T16:26:39.251Z,13.07
2023-10-09T16:29:33.661Z,12.33
2023-10-09T16:32:26.875Z,14.17
2023-10-09T16:35:25.465Z,20.50
2023-10-09T16:38:18.527Z,18.27
2023-10-09T16:41:15.156Z,20.70
2023-10-09T16:44:11.352Z,29.73
2023-10-09T16:47:06.235Z,15.03
2023-10-09T16:50:00.838Z,15.07
2023-10-09T16:52:55.297Z,13.80
2023-10-09T16:55:49.817Z,13.60
2023-10-09T16:58:43.346Z,15.33
2023-10-09T17:01:37.367Z,13.27
2023-10-09T17:04:31.004Z,13.90
2023-10-09T17:07:32.049Z,13.77
2023-10-09T17:10:28.947Z,13.73
2023-10-09T17:13:25.306Z,14.77
2023-10-09T17:16:20.828Z,16.97
2023-10-09T17:19:15.327Z,15.23
2023-10-09T17:22:12.261Z,14.07
2023-10-09T17:25:06.756Z,13.30
2023-10-09T17:28:01.797Z,13.53
2023-10-09T17:31:02.251Z,14.10
2023-10-09T17:33:57.421Z,12.87
2023-10-09T17:36:50.592Z,13.13
2023-10-09T17:39:43.896Z,13.80
2023-10-09T17:42:39.798Z,13.97
2023-10-09T17:45:42.360Z,14.33
2023-10-09T17:48:35.574Z,13.10
2023-10-09T17:51:29.253Z,13.03
2023-10-09T17:54:27.385Z,13.00
2023-10-09T17:57:20.575Z,12.93
2023-10-09T18:00:23.152Z,13.17
2023-10-09T18:03:18.202Z,12.10
2023-10-09T18:06:13.967Z,11.27
2023-10-09T18:09:17.362Z,14.27
2023-10-09T18:12:14.632Z,15.30
2023-10-09T18:15:08.267Z,50.80
2023-10-09T18:18:01.512Z,19.80
2023-10-09T18:20:58.282Z,15.53
2023-10-09T18:23:53.020Z,14.60
2023-10-09T18:26:46.189Z,13.70
2023-10-09T18:29:39.286Z,14.10
2023-10-09T18:32:32.382Z,13.50
2023-10-09T18:35:31.409Z,15.03
2023-10-09T18:38:26.731Z,16.23
2023-10-09T18:41:19.966Z,13.90
2023-10-09T18:44:14.102Z,14.23
2023-10-09T18:47:07.310Z,14.03
2023-10-09T18:50:00.568Z,13.30
2023-10-09T18:52:53.896Z,16.27
2023-10-09T18:55:49.667Z,14.33
2023-10-09T18:58:42.740Z,16.27
2023-10-09T19:01:36.255Z,15.40
2023-10-09T19:04:29.361Z,14.37
2023-10-09T19:07:22.485Z,13.47
2023-10-09T19:10:19.161Z,14.57
2023-10-09T19:13:15.055Z,13.63
2023-10-09T19:16:08.316Z,14.97
2023-10-09T19:19:08.533Z,13.70
2023-10-09T19:22:03.076Z,14.07
2023-10-09T19:24:57.408Z,11.93
2023-10-09T19:27:58.107Z,15.50
2023-10-09T19:30:53.123Z,13.63
2023-10-09T19:33:46.348Z,12.70
2023-10-09T19:36:42.117Z,12.60
2023-10-09T19:39:35.187Z,13.53
2023-10-09T19:42:30.458Z,12.40
2023-10-09T19:45:23.349Z,11.40
2023-10-09T19:48:17.880Z,12.13
2023-10-09T19:51:13.573Z,13.80
2023-10-09T19:54:06.741Z,15.70
2023-10-09T19:57:00.026Z,13.07
2023-10-09T19:59:56.004Z,15.63
2023-10-09T20:02:49.383Z,14.60
2023-10-09T20:05:43.831Z,12.67
2023-10-09T20:08:39.621Z,14.40
2023-10-09T20:11:32.505Z,13.37
2023-10-09T20:14:25.463Z,13.37
2023-10-09T20:17:18.665Z,14.27
2023-10-09T20:20:14.628Z,13.33
2023-10-09T20:23:09.116Z,13.03
2023-10-09T20:26:02.739Z,12.77
2023-10-09T20:28:55.999Z,13.70
2023-10-09T20:31:50.868Z,14.27
2023-10-09T20:34:44.941Z,15.20
2023-10-09T20:37:38.015Z,14.87
2023-10-09T20:40:32.747Z,14.73
2023-10-09T20:43:28.691Z,15.17
2023-10-09T20:46:25.347Z,18.30
2023-10-09T20:49:19.451Z,15.17
2023-10-09T20:52:12.758Z,15.50
2023-10-09T20:55:06.701Z,14.27
2023-10-09T20:58:02.935Z,16.67
2023-10-09T21:00:59.189Z,14.27
2023-10-09T21:03:52.905Z,14.23
2023-10-09T21:06:50.937Z,16.70
2023-10-09T21:09:44.433Z,16.43
2023-10-09T21:12:38.065Z,15.23
2023-10-09T21:15:36.028Z,19.83
2023-10-09T21:18:29.579Z,15.63
2023-10-09T21:21:23.503Z,17.27
2023-10-09T21:24:16.628Z,17.73
2023-10-09T21:27:10.144Z,17.97
2023-10-09T21:30:07.413Z,19.03
2023-10-09T21:33:02.073Z,18.20
2023-10-09T21:35:56.872Z,17.83
2023-10-09T21:38:49.994Z,19.77
2023-10-09T21:41:43.095Z,18.33
2023-10-09T21:44:36.127Z,20.20
2023-10-09T21:47:31.208Z,17.30
2023-10-09T21:50:26.844Z,16.93
2023-10-09T21:53:19.949Z,18.63
2023-10-09T21:56:15.586Z,19.83
2023-10-09T21:59:13.284Z,20.80
2023-10-09T22:02:07.821Z,19.40
2023-10-09T22:05:10.305Z,17.60
2023-10-09T22:08:07.047Z,22.23
2023-10-09T22:11:00.167Z,22.67
2023-10-09T22:13:53.297Z,19.83
2023-10-09T22:16:46.395Z,24.10
2023-10-09T22:19:39.371Z,18.93
2023-10-09T22:22:34.561Z,19.93
2023-10-09T22:25:31.130Z,20.03
2023-10-09T22:28:24.924Z,20.47
2023-10-09T22:31:18.048Z,20.67
2023-10-09T22:34:12.813Z,22.37
2023-10-09T22:37:14.115Z,22.93
2023-10-09T22:40:21.932Z,19.40
2023-10-09T22:43:18.113Z,18.13
2023-10-09T22:46:16.773Z,19.17
2023-10-09T22:49:15.533Z,18.27
2023-10-09T22:52:14.598Z,17.87
2023-10-09T22:55:08.218Z,21.73
2023-10-09T22:58:11.009Z,18.03
2023-10-09T23:01:13.553Z,18.13
2023-10-09T23:04:17.556Z,19.47
2023-10-09T23:07:16.443Z,17.43
2023-10-09T23:10:17.005Z,20.30
2023-10-09T23:13:16.499Z,18.27
2023-10-09T23:16:15.536Z,17.43
2023-10-09T23:19:32.240Z,18.47
2023-10-09T23:22:39.061Z,18.43
2023-10-09T23:25:35.044Z,19.17
2023-10-09T23:28:39.043Z,19.63
2023-10-09T23:31:47.851Z,18.83
2023-10-09T23:34:53.636Z,17.70
2023-10-09T23:38:07.690Z,17.80
2023-10-09T23:41:01.285Z,19.40
2023-10-09T23:43:56.626Z,17.43
2023-10-09T23:46:51.763Z,19.10
2023-10-09T23:49:47.069Z,18.10
2023-10-09T23:52:45.563Z,18.80
2023-10-09T23:55:43.261Z,16.80
2023-10-09T23:58:36.420Z,17.97
